RUK8624 EGCC-GMTT
Flight info
| Callsign | RUK8624 |
|---|---|
| Flight time | N/A |
| Altitude | 23000 |
| Route | ASMIM DCT NOKIN P17 BEPHE/N0439F360 DCT OSSEP DCT ELNIF DCT ZESPE DCT DAWLY DCT BHD DCT SALCO/N0437F370 DCT GOPIN DCT DELOG DCT VADOX DCT SNR DCT TITAN DCT RATAS DCT NEA DCT NONTU DCT ORBIS DCT DISKO DCT TLD DCT DOPEN DCT MONTO DCT MOLIN DCT VJF N10 LINTO DCT NOLRO |
| Aircraft | B738/M-SDE3FGILRWY/SB1 |
Departure
| Time | N/A |
|---|---|
| Airport | Manchester Airport (EGCC) |
Arrival
| Time | 2026-04-23 21:01 |
|---|---|
| Airport | Tangier Ibn Battuta Airport (GMTT) |
| Time | Latitude | Longitude | Altitude | Speed | Heading |
|---|---|---|---|---|---|
| 2026-04-23 20:39 | 35.87347 | -6.12573 | 21154 ft | 324 kts | 356° |
| 2026-04-23 20:39 | 35.89594 | -6.12681 | 20706 ft | 322 kts | 355° |
| 2026-04-23 20:40 | 35.91823 | -6.12809 | 20288 ft | 320 kts | 355° |
| 2026-04-23 20:40 | 35.94037 | -6.12948 | 19864 ft | 318 kts | 355° |
| 2026-04-23 20:40 | 35.96240 | -6.13020 | 19431 ft | 317 kts | 5° |
| 2026-04-23 20:40 | 35.98345 | -6.12265 | 18974 ft | 316 kts | 29° |
| 2026-04-23 20:41 | 36.00113 | -6.10707 | 18574 ft | 311 kts | 47° |
| 2026-04-23 20:41 | 36.01413 | -6.08614 | 18113 ft | 305 kts | 65° |
| 2026-04-23 20:41 | 36.02129 | -6.06194 | 17597 ft | 298 kts | 84° |
| 2026-04-23 20:41 | 36.02199 | -6.03676 | 17129 ft | 289 kts | 103° |
| 2026-04-23 20:42 | 36.01661 | -6.01342 | 16700 ft | 279 kts | 121° |
| 2026-04-23 20:42 | 36.00622 | -5.99374 | 16262 ft | 270 kts | 137° |
| 2026-04-23 20:42 | 35.99221 | -5.97870 | 15845 ft | 266 kts | 150° |
| 2026-04-23 20:42 | 35.97631 | -5.96760 | 15601 ft | 260 kts | 161° |
| 2026-04-23 20:43 | 35.95908 | -5.96222 | 15345 ft | 254 kts | 177° |
| 2026-04-23 20:43 | 35.94152 | -5.96079 | 15113 ft | 253 kts | 179° |
| 2026-04-23 20:43 | 35.92394 | -5.95965 | 14875 ft | 253 kts | 179° |
| 2026-04-23 20:43 | 35.90630 | -5.95856 | 14627 ft | 254 kts | 179° |
| 2026-04-23 20:44 | 35.88891 | -5.95747 | 14403 ft | 254 kts | 179° |
| 2026-04-23 20:44 | 35.87104 | -5.95749 | 14138 ft | 254 kts | 194° |
| 2026-04-23 20:44 | 35.85554 | -5.96772 | 13943 ft | 268 kts | 218° |
| 2026-04-23 20:44 | 35.84013 | -5.98239 | 13696 ft | 282 kts | 216° |
| 2026-04-23 20:45 | 35.82274 | -5.99363 | 13427 ft | 286 kts | 194° |
| 2026-04-23 20:45 | 35.80318 | -5.99437 | 13169 ft | 290 kts | 170° |
| 2026-04-23 20:45 | 35.78482 | -5.98420 | 12909 ft | 295 kts | 145° |
| 2026-04-23 20:45 | 35.77160 | -5.96488 | 12639 ft | 299 kts | 121° |
| 2026-04-23 20:46 | 35.76319 | -5.94181 | 12405 ft | 292 kts | 115° |
| 2026-04-23 20:46 | 35.75611 | -5.91880 | 12137 ft | 283 kts | 114° |
| 2026-04-23 20:46 | 35.74943 | -5.89648 | 11872 ft | 274 kts | 115° |
| 2026-04-23 20:46 | 35.74286 | -5.87484 | 11614 ft | 266 kts | 115° |
| 2026-04-23 20:47 | 35.73640 | -5.85387 | 11357 ft | 259 kts | 115° |
| 2026-04-23 20:47 | 35.73006 | -5.83345 | 11056 ft | 254 kts | 115° |
| 2026-04-23 20:47 | 35.72373 | -5.81319 | 10642 ft | 255 kts | 115° |
| 2026-04-23 20:47 | 35.71621 | -5.79327 | 9980 ft | 261 kts | 126° |
| 2026-04-23 20:48 | 35.70471 | -5.77547 | 9152 ft | 269 kts | 144° |
| 2026-04-23 20:48 | 35.68817 | -5.76567 | 8599 ft | 264 kts | 173° |
| 2026-04-23 20:48 | 35.67073 | -5.76760 | 8593 ft | 248 kts | 200° |
| 2026-04-23 20:48 | 35.65687 | -5.77933 | 8340 ft | 241 kts | 230° |
| 2026-04-23 20:49 | 35.64986 | -5.79783 | 7922 ft | 243 kts | 261° |
| 2026-04-23 20:49 | 35.65142 | -5.81848 | 7483 ft | 247 kts | 286° |
| 2026-04-23 20:49 | 35.65707 | -5.83832 | 7126 ft | 245 kts | 287° |
| 2026-04-23 20:49 | 35.66280 | -5.85790 | 6784 ft | 243 kts | 289° |
| 2026-04-23 20:50 | 35.66905 | -5.87732 | 6535 ft | 243 kts | 295° |
| 2026-04-23 20:50 | 35.68010 | -5.89214 | 6505 ft | 237 kts | 334° |
| 2026-04-23 20:50 | 35.69604 | -5.89486 | 6500 ft | 235 kts | 13° |
| 2026-04-23 20:50 | 35.70985 | -5.88439 | 6500 ft | 242 kts | 53° |
| 2026-04-23 20:51 | 35.71814 | -5.86658 | 6500 ft | 238 kts | 61° |
| 2026-04-23 20:51 | 35.72465 | -5.84822 | 6361 ft | 232 kts | 78° |
| 2026-04-23 20:51 | 35.72546 | -5.82866 | 6149 ft | 229 kts | 98° |
| 2026-04-23 20:51 | 35.72227 | -5.80961 | 5942 ft | 226 kts | 108° |
| 2026-04-23 20:52 | 35.71500 | -5.79264 | 5710 ft | 224 kts | 124° |
| 2026-04-23 20:52 | 35.70644 | -5.77677 | 5500 ft | 223 kts | 122° |
| 2026-04-23 20:52 | 35.69802 | -5.76092 | 5336 ft | 218 kts | 122° |
| 2026-04-23 20:52 | 35.68971 | -5.74519 | 5062 ft | 221 kts | 122° |
| 2026-04-23 20:53 | 35.68144 | -5.72954 | 4876 ft | 217 kts | 122° |
| 2026-04-23 20:53 | 35.67324 | -5.71403 | 4723 ft | 211 kts | 122° |
| 2026-04-23 20:53 | 35.66547 | -5.69935 | 4613 ft | 200 kts | 121° |
| 2026-04-23 20:53 | 35.65803 | -5.68520 | 4398 ft | 195 kts | 122° |
| 2026-04-23 20:54 | 35.65084 | -5.67107 | 4090 ft | 194 kts | 112° |
| 2026-04-23 20:54 | 35.64944 | -5.65505 | 3778 ft | 190 kts | 76° |
| 2026-04-23 20:54 | 35.65534 | -5.64073 | 3496 ft | 189 kts | 49° |
| 2026-04-23 20:54 | 35.66530 | -5.63119 | 3413 ft | 177 kts | 27° |
| 2026-04-23 20:55 | 35.67696 | -5.62737 | 3183 ft | 175 kts | 4° |
| 2026-04-23 20:55 | 35.68899 | -5.62999 | 3039 ft | 180 kts | 340° |
| 2026-04-23 20:55 | 35.69933 | -5.63864 | 3009 ft | 183 kts | 314° |
| 2026-04-23 20:55 | 35.70441 | -5.65270 | 3014 ft | 180 kts | 284° |
| 2026-04-23 20:56 | 35.70729 | -5.66776 | 2988 ft | 182 kts | 283° |
| 2026-04-23 20:56 | 35.70885 | -5.67791 | 3009 ft | 184 kts | 281° |
| 2026-04-23 20:56 | 35.71069 | -5.69351 | 2997 ft | 184 kts | 279° |
| 2026-04-23 20:56 | 35.71234 | -5.70909 | 2997 ft | 183 kts | 277° |
| 2026-04-23 20:57 | 35.71367 | -5.72482 | 2913 ft | 187 kts | 276° |
| 2026-04-23 20:57 | 35.71507 | -5.74081 | 2689 ft | 187 kts | 277° |
| 2026-04-23 20:57 | 35.71649 | -5.75634 | 2449 ft | 177 kts | 277° |
| 2026-04-23 20:57 | 35.71777 | -5.77104 | 2233 ft | 168 kts | 277° |
| 2026-04-23 20:58 | 35.71895 | -5.78478 | 2006 ft | 156 kts | 276° |
| 2026-04-23 20:58 | 35.72038 | -5.79747 | 1789 ft | 145 kts | 282° |
| 2026-04-23 20:58 | 35.72153 | -5.80975 | 1605 ft | 145 kts | 277° |
| 2026-04-23 20:58 | 35.72246 | -5.82213 | 1407 ft | 145 kts | 277° |
| 2026-04-23 20:59 | 35.72338 | -5.83439 | 1227 ft | 143 kts | 279° |
| 2026-04-23 20:59 | 35.72458 | -5.84648 | 1059 ft | 141 kts | 279° |
| 2026-04-23 20:59 | 35.72569 | -5.85833 | 809 ft | 139 kts | 277° |
| 2026-04-23 20:59 | 35.72682 | -5.87004 | 626 ft | 138 kts | 280° |
| 2026-04-23 21:00 | 35.72796 | -5.88165 | 492 ft | 135 kts | 279° |
| 2026-04-23 21:00 | 35.72894 | -5.89302 | 294 ft | 133 kts | 279° |
| 2026-04-23 21:00 | 35.73007 | -5.90446 | 147 ft | 137 kts | 279° |
| 2026-04-23 21:00 | 35.73113 | -5.91600 | 55 ft | 127 kts | 278° |
| 2026-04-23 21:01 | 35.73200 | -5.92492 | 60 ft | 83 kts | 276° |
| 2026-04-23 21:01 | 35.73250 | -5.93027 | 53 ft | 52 kts | 276° |
| 2026-04-23 21:01 | 35.73249 | -5.93283 | 57 ft | 23 kts | 238° |
| 2026-04-23 21:01 | 35.73114 | -5.93303 | 53 ft | 22 kts | 136° |
| 2026-04-23 21:02 | 35.73078 | -5.93124 | 59 ft | 22 kts | 96° |
| 2026-04-23 21:02 | 35.73062 | -5.92944 | 55 ft | 21 kts | 96° |
| 2026-04-23 21:02 | 35.73045 | -5.92769 | 56 ft | 20 kts | 97° |
| 2026-04-23 21:02 | 35.73029 | -5.92599 | 55 ft | 20 kts | 96° |
| 2026-04-23 21:03 | 35.73013 | -5.92435 | 55 ft | 19 kts | 97° |
| 2026-04-23 21:03 | 35.72998 | -5.92276 | 57 ft | 18 kts | 96° |
| 2026-04-23 21:03 | 35.72983 | -5.92122 | 58 ft | 18 kts | 97° |
| 2026-04-23 21:03 | 35.72970 | -5.91974 | 55 ft | 17 kts | 96° |
| 2026-04-23 21:04 | 35.72955 | -5.91817 | 59 ft | 21 kts | 96° |
| 2026-04-23 21:04 | 35.72854 | -5.91718 | 59 ft | 21 kts | 176° |
| 2026-04-23 21:04 | 35.72707 | -5.91704 | 59 ft | 21 kts | 176° |
| 2026-04-23 21:04 | 35.72565 | -5.91691 | 59 ft | 20 kts | 176° |
| 2026-04-23 21:05 | 35.72444 | -5.91627 | 59 ft | 20 kts | 125° |
| 2026-04-23 21:05 | 35.72430 | -5.91468 | 59 ft | 19 kts | 85° |
| 2026-04-23 21:05 | 35.72440 | -5.91310 | 54 ft | 18 kts | 85° |
| 2026-04-23 21:05 | 35.72455 | -5.91193 | 53 ft | 8 kts | 40° |
| 2026-04-23 21:06 | 35.72512 | -5.91191 | 59 ft | 7 kts | 355° |
| 2026-04-23 21:06 | 35.72526 | -5.91193 | 59 ft | 0 kts | 355° |